Aérodrome :
LOGIN :

S'inscrire | Disclaimer

   EN    FR    IT 

 










Légende :    VFR   VFR Marginal   IFR   IFR Intensif   IFR Très Intensif
Visi : 
Plafond : 
>= 8 km
>= 3000ft
5 à 8 km
1000 à 3000 ft
1500m à 5 km
500 à 1000 ft
800 à 1500m
200 à 500 ft
< 800m
< 200 ft
Symboles :   Orages  Brouillard  Fortes neiges  Fortes précipitations  Vent > 20 kt
SIGMETs :   Divers  Orages  Givrage  Turbulence  Onde Orograph.  Cendres Volcan.






- Altitude de l'aérodrome : 681 ft
- Code IATA : LBA


EGNM - Leeds Bradford

DERNIER METAR :
  • 151920Z VRB03KT 9999 SCT019 BKN021 10/07 Q1002

METARs EXPIRÉS :
  • 151850Z VRB02KT 9999 BKN021 10/07 Q1003
  • 151820Z 21003KT 9999 BKN017 10/07 Q1003
  • 151750Z 23003KT 9999 BKN016 10/07 Q1002
  • 151720Z 24004KT 200V270 9999 BKN013 10/07 Q1002
  • 151650Z 24004KT 200V270 9999 BKN012 10/07 Q1002

TAF TAF EGNM
Valide du 15 à 18h jusqu'au 16 à 18h UTC


151655Z 1518/1618 22005KT 9999 FEW009 SCT025
TEMPO 1518/1602 BKN014
BECMG 1602/1605 13010KT 8000 -RA BKN005
TEMPO 1605/1611 RA BKN004
PROB30
TEMPO 1606/1611 0300 +RA FG OVC001
BECMG 1611/1614 27012KT 9999 NSW SCT025
ATIS : +44 113 250 9696 (x2489)



MET'MAP, la Météo Aéronautique d'un coup d'oeil ! - Copyright ORBIFLY Décembre 2007 - Disclaimer

ORBIFLY MET'MAP TEAM :

Programmation & Développement : Alexandra Zaïnal
Conception & Développement : Baudouin d'Aumeries
Co-Programmation & Développement : Marc-Olivier Méhu
Soutien technique & logistique : Manuel Goepfert

Contact : metmap@orbifly.com




SOURCES & CREDITS :

   NOAA